地図

経路データ

SID SEASON NUMBER BASIN SUBBASIN NAME ISO_TIME NATURE LAT LON WMO_WIND WMO_PRES WMO_AGENCY TRACK_TYPE DIST2LAND LANDFALL IFLAG USA_AGENCY USA_ATCF_ID USA_LAT USA_LON USA_RECORD USA_STATUS USA_WIND USA_PRES USA_SSHS USA_R34_NE USA_R34_SE USA_R34_SW USA_R34_NW USA_R50_NE USA_R50_SE USA_R50_SW USA_R50_NW USA_R64_NE USA_R64_SE USA_R64_SW USA_R64_NW USA_POCI USA_ROCI USA_RMW USA_EYE TOKYO_LAT TOKYO_LON TOKYO_GRADE TOKYO_WIND TOKYO_PRES TOKYO_R50_DIR TOKYO_R50_LONG TOKYO_R50_SHORT TOKYO_R30_DIR TOKYO_R30_LONG TOKYO_R30_SHORT TOKYO_LAND CMA_LAT CMA_LON CMA_CAT CMA_WIND CMA_PRES HKO_LAT HKO_LON HKO_CAT HKO_WIND HKO_PRES NEWDELHI_LAT NEWDELHI_LON NEWDELHI_GRADE NEWDELHI_WIND NEWDELHI_PRES NEWDELHI_CI NEWDELHI_DP NEWDELHI_POCI REUNION_LAT REUNION_LON REUNION_TYPE REUNION_WIND REUNION_PRES REUNION_TNUM REUNION_CI REUNION_RMW REUNION_R34_NE REUNION_R34_SE REUNION_R34_SW REUNION_R34_NW REUNION_R50_NE REUNION_R50_SE REUNION_R50_SW REUNION_R50_NW REUNION_R64_NE REUNION_R64_SE REUNION_R64_SW REUNION_R64_NW BOM_LAT BOM_LON BOM_TYPE BOM_WIND BOM_PRES BOM_TNUM BOM_CI BOM_RMW BOM_R34_NE BOM_R34_SE BOM_R34_SW BOM_R34_NW BOM_R50_NE BOM_R50_SE BOM_R50_SW BOM_R50_NW BOM_R64_NE BOM_R64_SE BOM_R64_SW BOM_R64_NW BOM_ROCI BOM_POCI BOM_EYE BOM_POS_METHOD BOM_PRES_METHOD NADI_LAT NADI_LON NADI_CAT NADI_WIND NADI_PRES WELLINGTON_LAT WELLINGTON_LON WELLINGTON_WIND WELLINGTON_PRES DS824_LAT DS824_LON DS824_STAGE DS824_WIND DS824_PRES TD9636_LAT TD9636_LON TD9636_STAGE TD9636_WIND TD9636_PRES TD9635_LAT TD9635_LON TD9635_WIND TD9635_PRES TD9635_ROCI NEUMANN_LAT NEUMANN_LON NEUMANN_CLASS NEUMANN_WIND NEUMANN_PRES MLC_LAT MLC_LON MLC_CLASS MLC_WIND MLC_PRES USA_GUST BOM_GUST BOM_GUST_PER REUNION_GUST REUNION_GUST_PER USA_SEAHGT USA_SEARAD_NE USA_SEARAD_SE USA_SEARAD_SW USA_SEARAD_NW STORM_SPEED STORM_DIR
1860262N22294 1860 31 NA NA NOT_NAMED 1860-09-18 00:00:00 TS 22.2000 -66.1000 40 hurdat_atl main 424 424 O_____________ hurdat_atl AL051860 22.2000 -66.1000 TS 40 0 8 308
1860262N22294 1860 31 NA NA NOT_NAMED 1860-09-18 03:00:00 TS 22.4501 -66.4473 main 458 454 P_____________ AL051860 22.4501 -66.4473 TS 40 0 8 308
1860262N22294 1860 31 NA NA NOT_NAMED 1860-09-18 06:00:00 TS 22.7000 -66.8000 40 hurdat_atl main 460 454 O_____________ hurdat_atl AL051860 22.7000 -66.8000 TS 40 0 8 307
1860262N22294 1860 31 NA NA NOT_NAMED 1860-09-18 09:00:00 TS 22.9500 -67.1576 main 457 457 P_____________ AL051860 22.9500 -67.1576 TS 40 0 8 308
1860262N22294 1860 31 NA NA NOT_NAMED 1860-09-18 12:00:00 TS 23.2000 -67.5000 40 hurdat_atl main 474 470 O_____________ hurdat_atl AL051860 23.2000 -67.5000 TS 40 0 8 310
1860262N22294 1860 31 NA NA NOT_NAMED 1860-09-18 15:00:00 TS 23.4499 -67.8002 main 481 481 P_____________ AL051860 23.4499 -67.8002 TS 40 0 7 312
1860262N22294 1860 31 NA NA NOT_NAMED 1860-09-18 18:00:00 TS 23.7000 -68.1000 40 hurdat_atl main 498 494 O_____________ hurdat_atl AL051860 23.7000 -68.1000 TS 40 0 8 308
1860262N22294 1860 31 NA NA NOT_NAMED 1860-09-18 21:00:00 TS 23.9200 -68.4503 main 505 505 P_____________ AL051860 23.9200 -68.4503 TS 45 0 8 308
1860262N22294 1860 31 NA NA NOT_NAMED 1860-09-19 00:00:00 TS 24.2000 -68.8000 50 hurdat_atl main 525 525 O_____________ hurdat_atl AL051860 24.2000 -68.8000 TS 50 0 9 319
1860262N22294 1860 31 NA NA NOT_NAMED 1860-09-19 03:00:00 TS 24.6199 -69.1076 main 551 551 P_____________ AL051860 24.6199 -69.1076 TS 50 0 11 329
1860262N22294 1860 31 NA NA NOT_NAMED 1860-09-19 06:00:00 TS 25.1000 -69.4000 50 hurdat_atl main 570 570 O_____________ hurdat_atl AL051860 25.1000 -69.4000 TS 50 0 11 329
1860262N22294 1860 31 NA NA NOT_NAMED 1860-09-19 09:00:00 TS 25.5501 -69.7225 main 595 590 P_____________ AL051860 25.5501 -69.7225 TS 55 0 11 329
1860262N22294 1860 31 NA NA NOT_NAMED 1860-09-19 12:00:00 TS 26.0000 -70.0000 60 hurdat_atl main 617 617 O_____________ hurdat_atl AL051860 26.0000 -70.0000 TS 60 0 10 335
1860262N22294 1860 31 NA NA NOT_NAMED 1860-09-19 15:00:00 TS 26.4199 -70.1730 main 647 647 P_____________ AL051860 26.4199 -70.1730 TS 60 0 9 343
1860262N22294 1860 31 NA NA NOT_NAMED 1860-09-19 18:00:00 TS 26.9000 -70.3000 60 hurdat_atl main 693 693 O_____________ hurdat_atl AL051860 26.9000 -70.3000 TS 60 0 11 347
1860262N22294 1860 31 NA NA NOT_NAMED 1860-09-19 21:00:00 TS 27.5125 -70.4575 main 748 748 P_____________ AL051860 27.5125 -70.4575 TS 60 0 13 348
1860262N22294 1860 31 NA NA NOT_NAMED 1860-09-20 00:00:00 TS 28.2000 -70.6000 60 hurdat_atl main 812 812 O_____________ hurdat_atl AL051860 28.2000 -70.6000 TS 60 0 14 351
1860262N22294 1860 31 NA NA NOT_NAMED 1860-09-20 03:00:00 TS 28.8925 -70.7078 main 837 781 P_____________ AL051860 28.8925 -70.7078 TS 60 0 14 353
1860262N22294 1860 31 NA NA NOT_NAMED 1860-09-20 06:00:00 TS 29.6000 -70.8000 60 hurdat_atl main 781 717 O_____________ hurdat_atl AL051860 29.6000 -70.8000 TS 60 0 14 353
1860262N22294 1860 31 NA NA NOT_NAMED 1860-09-20 09:00:00 TS 30.2925 -70.9148 main 717 657 P_____________ AL051860 30.2925 -70.9148 TS 60 0 14 353
1860262N22294 1860 31 NA NA NOT_NAMED 1860-09-20 12:00:00 TS 31.0000 -71.0000 60 hurdat_atl main 657 607 O_____________ hurdat_atl AL051860 31.0000 -71.0000 TS 60 0 14 355
1860262N22294 1860 31 NA NA NOT_NAMED 1860-09-20 15:00:00 TS 31.7200 -71.0445 main 607 553 P_____________ AL051860 31.7200 -71.0445 TS 60 0 15 0
1860262N22294 1860 31 NA NA NOT_NAMED 1860-09-20 18:00:00 TS 32.5000 -71.0000 60 hurdat_atl main 553 504 O_____________ hurdat_atl AL051860 32.5000 -71.0000 TS 60 0 17 6
1860262N22294 1860 31 NA NA NOT_NAMED 1860-09-20 21:00:00 TS 33.3850 -70.8451 main 505 475 P_____________ AL051860 33.3850 -70.8451 TS 60 0 18 11
1860262N22294 1860 31 NA NA NOT_NAMED 1860-09-21 00:00:00 TS 34.3000 -70.6000 60 hurdat_atl main 475 466 O_____________ hurdat_atl AL051860 34.3000 -70.6000 TS 60 0 18 14
1860262N22294 1860 31 NA NA NOT_NAMED 1860-09-21 03:00:00 TS 35.1724 -70.3222 main 474 471 P_____________ AL051860 35.1724 -70.3222 TS 60 0 18 16
1860262N22294 1860 31 NA NA NOT_NAMED 1860-09-21 06:00:00 TS 36.0000 -70.0000 60 hurdat_atl main 494 494 O_____________ hurdat_atl AL051860 36.0000 -70.0000 TS 60 0 17 18
1860262N22294 1860 31 NA NA NOT_NAMED 1860-09-21 09:00:00 TS 36.7649 -69.6641 main 501 461 P_____________ AL051860 36.7649 -69.6641 TS 60 0 16 20
1860262N22294 1860 31 NA NA NOT_NAMED 1860-09-21 12:00:00 TS 37.5000 -69.3000 60 hurdat_atl main 461 394 O_____________ hurdat_atl AL051860 37.5000 -69.3000 TS 60 0 16 22
1860262N22294 1860 31 NA NA NOT_NAMED 1860-09-21 15:00:00 TS 38.2453 -68.9094 main 397 326 P_____________ AL051860 38.2453 -68.9094 TS 60 0 16 23
1860262N22294 1860 31 NA NA NOT_NAMED 1860-09-21 18:00:00 TS 39.0000 -68.5000 60 hurdat_atl main 326 O_____________ hurdat_atl AL051860 39.0000 -68.5000 TS 60 0 16 23

IBTrACS Databaseについて

本データベースは、米国NOAAが公開する1842年以降の世界の熱帯低気圧のベストトラックデータアーカイブInternational Best Track Archive for Climate Stewardship (IBTrACS)を、ウェブで閲覧しやすい形式に変換したものです。

最終更新日:2021-10-25